Time;durP1;ratioP1;P1;durP2;ratioP2;P2;SDS_P1;SDS_P2;PMS_P1;PMS_P2;Temp;Humidity;BMP_temperature;BMP_pressure;BME280_temperature;BME280_humidity;BME280_pressure;Samples;Min_cycle;Max_cycle;Signal;HPM_P1;HPM_P2
2023/03/11 07:10:09;;;;;;;4.60;1.63;;;;;;;-0.72;76.91;95763.44;2084009;28;20573;-60
2023/03/11 07:11:16;;;;;;;9.98;1.42;;;;;;;-0.27;75.71;95778.16;2081117;28;20249;-60
2023/03/11 07:12:21;;;;;;;12.15;1.98;;;;;;;0.20;74.35;95765.38;2080952;28;20202;-60
2023/03/11 07:13:23;;;;;;;5.60;2.10;;;;;;;0.74;72.51;95778.97;2077614;28;20892;-61
2023/03/11 07:14:24;;;;;;;6.68;1.63;;;;;;;1.05;71.24;95792.00;2069907;28;20564;-61
2023/03/11 07:15:26;;;;;;;5.05;1.65;;;;;;;1.24;70.80;95786.50;2077789;28;20294;-61
2023/03/11 07:16:28;;;;;;;10.18;1.48;;;;;;;1.33;69.93;95781.13;2078452;28;20825;-61
2023/03/11 07:17:31;;;;;;;5.80;1.85;;;;;;;1.76;68.38;95785.31;2078185;28;20201;-61
2023/03/11 07:18:34;;;;;;;12.80;2.42;;;;;;;1.76;67.37;95787.03;2077549;28;20299;-61
2023/03/11 07:19:35;;;;;;;8.93;1.67;;;;;;;1.94;67.06;95804.63;2078333;28;20563;-61
2023/03/11 07:20:36;;;;;;;3.65;1.30;;;;;;;2.35;66.14;95772.72;2078443;28;20202;-62
2023/03/11 07:21:39;;;;;;;6.30;1.52;;;;;;;2.37;65.39;95786.41;2076541;28;20246;-62
2023/03/11 07:22:40;;;;;;;5.28;1.58;;;;;;;2.46;64.82;95796.47;2077626;28;20235;-62
2023/03/11 07:23:42;;;;;;;13.45;1.90;;;;;;;2.79;64.02;95796.44;2078720;28;20225;-62
2023/03/11 07:24:48;;;;;;;10.18;2.15;;;;;;;3.09;63.11;95801.66;2077736;28;20204;-62
2023/03/11 07:25:51;;;;;;;4.57;1.48;;;;;;;2.76;62.99;95793.97;2077880;28;20201;-62
2023/03/11 07:26:53;;;;;;;6.22;1.40;;;;;;;2.79;63.02;95768.09;2078388;28;20788;-62
2023/03/11 07:27:54;;;;;;;7.90;1.48;;;;;;;2.97;62.69;95791.66;2077367;28;20911;-62
2023/03/11 07:28:56;;;;;;;6.45;1.90;;;;;;;2.96;62.97;95795.13;2077880;28;20228;-62
2023/03/11 07:30:00;;;;;;;8.07;1.85;;;;;;;2.77;63.12;95803.41;2078264;28;20216;-62
2023/03/11 07:31:16;;;;;;;10.10;1.75;;;;;;;2.70;62.44;95804.44;2078202;28;20197;-62
2023/03/11 07:32:18;;;;;;;10.65;1.95;;;;;;;2.74;62.11;95794.03;2078391;28;20192;-62
2023/03/11 07:33:22;;;;;;;8.50;2.30;;;;;;;3.02;62.93;95806.16;2077393;28;20655;-63
2023/03/11 07:34:24;;;;;;;8.15;1.65;;;;;;;3.39;64.96;95810.25;2078452;28;20208;-63
2023/03/11 07:35:25;;;;;;;9.65;3.38;;;;;;;4.49;62.61;95809.34;2078180;28;20197;-63
2023/03/11 07:36:27;;;;;;;10.88;1.73;;;;;;;4.49;60.23;95811.94;2077367;28;20607;-63
2023/03/11 07:37:29;;;;;;;6.05;1.80;;;;;;;4.66;58.94;95810.50;2079549;28;20206;-63
2023/03/11 07:38:30;;;;;;;10.68;1.80;;;;;;;4.49;59.06;95811.94;2078934;28;20233;-62
2023/03/11 07:39:32;;;;;;;7.10;1.60;;;;;;;4.11;60.34;95803.72;2078474;28;20197;-63
2023/03/11 07:40:34;;;;;;;3.78;1.20;;;;;;;4.29;60.31;95806.59;2078736;28;20699;-63
2023/03/11 07:41:35;;;;;;;3.15;1.20;;;;;;;4.58;58.75;95803.03;2078765;28;20355;-64
2023/03/11 07:42:37;;;;;;;9.93;1.55;;;;;;;4.78;57.78;95809.25;2078148;28;20864;-64
2023/03/11 07:43:41;;;;;;;5.25;1.63;;;;;;;4.83;57.44;95812.53;2078618;28;20201;-63
2023/03/11 07:44:43;;;;;;;5.35;1.15;;;;;;;4.60;58.18;95810.72;2077669;28;20201;-63
2023/03/11 07:45:44;;;;;;;5.40;1.55;;;;;;;4.64;56.89;95802.81;2078485;28;20203;-63
2023/03/11 07:46:46;;;;;;;5.72;1.38;;;;;;;4.74;56.51;95814.53;2078487;28;20284;-63
2023/03/11 07:47:47;;;;;;;7.80;1.90;;;;;;;4.41;56.88;95801.84;2076471;28;20243;-63
2023/03/11 07:48:50;;;;;;;4.38;1.20;;;;;;;4.49;56.47;95811.09;2077035;28;20251;-63
2023/03/11 07:49:51;;;;;;;9.63;1.45;;;;;;;4.17;57.27;95815.59;2077371;28;20675;-63
2023/03/11 07:51:27;;;;;;;7.07;1.40;;;;;;;4.34;56.51;95815.03;2077516;28;20197;-61
2023/03/11 07:52:30;;;;;;;19.95;1.48;;;;;;;4.64;55.84;95820.09;2068923;28;20210;-61
2023/03/11 07:53:33;;;;;;;12.38;1.35;;;;;;;4.52;56.48;95827.38;2075744;28;20573;-60
2023/03/11 07:54:34;;;;;;;4.65;1.27;;;;;;;4.81;56.01;95830.69;2078433;28;20199;-61
2023/03/11 07:55:36;;;;;;;6.85;1.67;;;;;;;5.04;56.90;95829.03;2077746;28;20248;-62
2023/03/11 07:56:37;;;;;;;5.40;1.40;;;;;;;5.16;56.75;95831.16;2076932;28;20626;-62
2023/03/11 07:57:39;;;;;;;5.90;1.85;;;;;;;5.33;57.48;95830.56;2078171;28;20201;-62
2023/03/11 07:58:42;;;;;;;6.15;2.13;;;;;;;5.80;54.47;95826.22;2078559;28;20284;-62
2023/03/11 07:59:46;;;;;;;9.35;1.60;;;;;;;5.42;53.43;95820.75;2078169;28;20197;-62
2023/03/11 08:00:47;;;;;;;3.75;1.33;;;;;;;5.55;54.74;95824.59;2077915;28;20206;-62
2023/03/11 08:01:49;;;;;;;6.32;1.80;;;;;;;5.66;53.84;95817.25;2077796;28;20209;-62
2023/03/11 08:02:51;;;;;;;8.13;1.48;;;;;;;5.87;53.70;95820.75;2077509;28;20201;-62
2023/03/11 08:03:57;;;;;;;8.20;1.75;;;;;;;6.30;54.01;95818.22;2077864;28;20190;-63
2023/03/11 08:04:59;;;;;;;6.10;1.40;;;;;;;6.74;52.63;95816.44;2078417;28;20828;-62
2023/03/11 08:06:01;;;;;;;8.70;1.60;;;;;;;6.82;51.45;95816.97;2079099;28;20199;-62
2023/03/11 08:07:02;;;;;;;7.43;1.70;;;;;;;6.07;51.89;95823.50;2079012;28;20620;-63
2023/03/11 08:08:04;;;;;;;10.30;1.60;;;;;;;5.76;53.09;95828.09;2078034;28;20228;-62
2023/03/11 08:09:08;;;;;;;5.95;1.60;;;;;;;5.78;51.93;95826.28;2077420;28;20202;-62
2023/03/11 08:10:10;;;;;;;7.68;1.70;;;;;;;5.56;52.00;95827.13;2077330;28;20796;-62
2023/03/11 08:11:12;;;;;;;4.55;1.15;;;;;;;5.69;52.12;95832.66;2078028;28;20199;-62
2023/03/11 08:12:15;;;;;;;6.63;1.52;;;;;;;6.49;51.33;95835.63;2078497;28;20204;-62
2023/03/11 08:13:16;;;;;;;8.70;1.75;;;;;;;6.69;51.49;95834.78;2077618;28;20230;-62
2023/03/11 08:14:18;;;;;;;9.05;1.90;;;;;;;7.15;49.68;95835.41;2077617;28;20231;-62
2023/03/11 08:15:19;;;;;;;5.53;1.27;;;;;;;6.68;51.02;95833.13;2078338;28;20208;-62
2023/03/11 08:16:21;;;;;;;10.20;1.42;;;;;;;6.80;51.94;95835.16;2077489;28;20690;-62
2023/03/11 08:17:22;;;;;;;10.48;1.50;;;;;;;7.29;50.85;95834.81;2077206;28;20562;-62
2023/03/11 08:18:24;;;;;;;6.70;1.40;;;;;;;7.50;49.06;95835.59;2077775;28;20240;-62
2023/03/11 08:19:25;;;;;;;6.13;1.60;;;;;;;7.95;49.07;95827.50;2078407;28;20204;-62
2023/03/11 08:20:27;;;;;;;6.63;1.25;;;;;;;8.09;48.38;95822.47;2077914;28;20236;-63
2023/03/11 08:21:30;;;;;;;4.55;1.38;;;;;;;8.17;48.33;95835.94;2072131;28;20649;-62
2023/03/11 08:22:32;;;;;;;6.05;1.35;;;;;;;8.94;46.83;95835.72;2072132;28;20193;-63
2023/03/11 08:23:34;;;;;;;6.80;1.38;;;;;;;8.78;46.90;95836.47;2073001;28;20202;-63
2023/03/11 08:24:35;;;;;;;6.60;1.55;;;;;;;8.71;46.26;95842.94;2072859;28;20665;-62
2023/03/11 08:25:38;;;;;;;11.70;1.63;;;;;;;8.91;46.06;95841.06;2072898;28;20198;-63
2023/03/11 08:26:40;;;;;;;5.95;1.73;;;;;;;8.72;44.93;95844.59;2067734;28;20202;-63
2023/03/11 08:27:42;;;;;;;8.88;1.58;;;;;;;7.90;46.74;95832.03;2066528;28;20198;-62
2023/03/11 08:28:44;;;;;;;7.40;1.75;;;;;;;8.46;46.88;95846.72;2071759;28;20198;-63
2023/03/11 08:29:45;;;;;;;5.13;1.20;;;;;;;8.09;47.01;95832.06;2072091;28;20272;-63
2023/03/11 08:30:46;;;;;;;7.07;1.88;;;;;;;8.64;46.38;95838.94;2071570;28;20217;-62
2023/03/11 08:31:48;;;;;;;5.70;1.40;;;;;;;8.75;46.59;95839.25;2072780;28;20198;-63
2023/03/11 08:32:49;;;;;;;11.38;2.25;;;;;;;9.77;44.91;95838.31;2072342;28;20213;-63
2023/03/11 08:33:53;;;;;;;4.05;1.10;;;;;;;10.07;44.02;95840.19;2071482;28;20194;-63
2023/03/11 08:34:56;;;;;;;8.52;1.33;;;;;;;9.65;45.55;95847.66;2071720;28;20677;-63
2023/03/11 08:35:57;;;;;;;4.53;1.25;;;;;;;8.02;46.56;95844.47;2071887;28;20209;-63
2023/03/11 08:37:00;;;;;;;3.20;1.23;;;;;;;5.82;50.73;95840.81;2072779;28;20198;-63
2023/03/11 08:38:01;;;;;;;6.15;1.30;;;;;;;7.37;48.98;95844.84;2072374;28;20229;-63
2023/03/11 08:39:03;;;;;;;13.63;1.75;;;;;;;8.02;48.04;95847.06;2072610;28;20198;-63
2023/03/11 08:40:05;;;;;;;15.15;1.83;;;;;;;8.69;46.55;95851.75;2072909;28;20551;-63
2023/03/11 08:41:06;;;;;;;11.75;1.33;;;;;;;8.62;45.96;95846.84;2072289;28;20775;-63
2023/03/11 08:42:08;;;;;;;15.50;1.30;;;;;;;9.30;46.05;95850.38;2070794;28;20545;-63
2023/03/11 08:43:13;;;;;;;5.78;1.00;;;;;;;9.57;44.44;95848.06;2071117;28;20221;-62
2023/03/11 08:44:15;;;;;;;9.55;1.98;;;;;;;9.42;43.25;95854.94;2072988;28;20257;-63
2023/03/11 08:45:16;;;;;;;4.43;1.20;;;;;;;9.92;43.78;95847.91;2072329;28;20221;-63
2023/03/11 08:46:32;;;;;;;4.40;1.30;;;;;;;9.89;43.12;95853.31;2072584;28;20193;-63
2023/03/11 08:47:35;;;;;;;6.25;1.33;;;;;;;9.52;43.41;95857.88;2072004;28;20235;-63
2023/03/11 08:48:36;;;;;;;4.43;1.20;;;;;;;9.61;44.50;95854.81;2065693;28;20260;-63
2023/03/11 08:49:38;;;;;;;6.32;1.55;;;;;;;9.71;43.37;95849.09;2066031;28;20661;-63
2023/03/11 08:50:41;;;;;;;7.10;1.55;;;;;;;10.44;43.12;95849.41;2072506;28;20210;-63
2023/03/11 08:51:53;;;;;;;5.78;1.50;;;;;;;10.44;43.12;95849.41;2072717;28;20235;-63
2023/03/11 08:52:59;;;;;;;6.70;1.60;;;;;;;10.26;41.83;95860.88;2071744;28;20689;-63
2023/03/11 08:54:01;;;;;;;6.30;1.73;;;;;;;9.99;41.97;95844.97;2071460;28;20197;-63
2023/03/11 08:55:03;;;;;;;8.43;1.70;;;;;;;10.12;42.47;95839.00;2071395;28;20230;-63
2023/03/11 08:56:05;;;;;;;8.10;1.10;;;;;;;8.59;42.79;95854.78;2072882;28;20218;-63
2023/03/11 08:57:07;;;;;;;7.45;1.42;;;;;;;8.20;46.01;95862.72;2072525;28;20208;-63
2023/03/11 08:58:08;;;;;;;7.65;1.70;;;;;;;9.29;45.41;95848.66;2071725;28;20221;-63
2023/03/11 08:59:10;;;;;;;6.32;1.67;;;;;;;9.90;44.64;95856.75;2072818;28;20259;-63
2023/03/11 09:00:12;;;;;;;5.90;1.17;;;;;;;8.28;47.17;95851.03;2072058;28;20508;-63
2023/03/11 09:01:13;;;;;;;6.10;1.23;;;;;;;7.18;48.62;95850.84;2072099;28;20204;-63
2023/03/11 09:02:15;;;;;;;7.97;1.52;;;;;;;7.37;47.13;95867.38;2072754;28;20546;-63
2023/03/11 09:03:16;;;;;;;9.57;2.50;;;;;;;7.59;48.34;95859.47;2071394;28;20225;-63
2023/03/11 09:04:18;;;;;;;8.30;1.48;;;;;;;8.63;46.16;95860.69;2072187;28;20259;-63
2023/03/11 09:05:19;;;;;;;5.93;1.60;;;;;;;8.86;47.18;95856.09;2072330;28;20198;-63
2023/03/11 09:06:21;;;;;;;10.52;1.67;;;;;;;8.62;46.95;95865.06;2073313;28;20202;-63
2023/03/11 09:07:22;;;;;;;12.43;1.48;;;;;;;9.39;45.55;95855.06;2073259;28;20205;-63
2023/03/11 09:08:24;;;;;;;6.90;1.40;;;;;;;9.26;44.59;95856.66;2079346;28;20224;-62
2023/03/11 09:09:26;;;;;;;3.95;1.15;;;;;;;9.58;44.19;95854.94;2072248;28;20197;-63
2023/03/11 09:10:27;;;;;;;7.20;1.15;;;;;;;9.05;45.71;95863.81;2071938;28;20198;-62
2023/03/11 09:11:29;;;;;;;9.23;1.10;;;;;;;8.15;46.67;95862.94;2071734;28;20205;-63
2023/03/11 09:12:30;;;;;;;4.35;1.10;;;;;;;7.09;48.81;95851.25;2071595;28;20216;-63
2023/03/11 09:13:32;;;;;;;5.53;1.42;;;;;;;7.35;48.58;95867.44;2071231;28;20232;-63
2023/03/11 09:14:34;;;;;;;4.68;1.10;;;;;;;8.33;45.89;95861.25;2070849;28;20197;-63
2023/03/11 09:15:35;;;;;;;7.57;1.80;;;;;;;7.87;46.22;95860.81;2071989;28;20213;-63
2023/03/11 09:16:37;;;;;;;10.75;1.40;;;;;;;8.31;45.75;95865.66;2072004;28;20198;-63
2023/03/11 09:17:38;;;;;;;7.13;1.30;;;;;;;8.44;45.49;95851.16;2073217;28;20669;-63
2023/03/11 09:18:40;;;;;;;3.55;1.10;;;;;;;8.98;44.65;95864.13;2073720;28;20288;-63
2023/03/11 09:19:41;;;;;;;2.97;1.17;;;;;;;8.98;44.18;95877.13;2071305;28;20206;-63
2023/03/11 09:20:44;;;;;;;3.92;1.15;;;;;;;9.35;44.09;95873.59;2072269;28;20309;-63
2023/03/11 09:21:45;;;;;;;4.65;1.13;;;;;;;10.09;42.97;95877.44;2071979;28;20201;-63
2023/03/11 09:22:47;;;;;;;4.28;1.40;;;;;;;10.21;42.11;95881.13;2071277;28;20673;-63
2023/03/11 09:23:48;;;;;;;7.38;1.80;;;;;;;9.70;42.98;95878.69;2072452;28;20228;-63
2023/03/11 09:24:49;;;;;;;6.57;1.35;;;;;;;10.48;41.75;95875.38;2072598;28;20213;-63
2023/03/11 09:25:51;;;;;;;4.00;1.20;;;;;;;10.84;40.14;95876.78;2072799;28;20208;-63
2023/03/11 09:26:52;;;;;;;4.05;1.63;;;;;;;11.28;41.06;95876.78;2072552;28;20205;-63
2023/03/11 09:27:54;;;;;;;8.10;1.63;;;;;;;10.82;41.10;95876.88;2071702;28;20228;-63
2023/03/11 09:28:55;;;;;;;6.47;1.40;;;;;;;10.25;41.63;95883.50;2071829;28;20202;-63
2023/03/11 09:29:57;;;;;;;4.03;1.23;;;;;;;11.58;40.39;95875.88;2072630;28;20284;-63
2023/03/11 09:30:58;;;;;;;5.63;1.35;;;;;;;11.00;39.72;95866.28;2072351;28;20202;-63
2023/03/11 09:32:01;;;;;;;3.40;1.30;;;;;;;11.13;39.16;95879.47;2072297;28;20206;-63
2023/03/11 09:33:03;;;;;;;6.15;1.77;;;;;;;9.60;41.71;95876.56;2070536;28;20217;-63
2023/03/11 09:34:04;;;;;;;11.25;2.00;;;;;;;10.33;41.51;95874.41;2072732;28;20197;-63
2023/03/11 09:35:06;;;;;;;6.50;1.50;;;;;;;9.32;45.07;95880.63;2071763;28;20209;-63
2023/03/11 09:36:18;;;;;;;7.63;1.75;;;;;;;9.23;46.04;95867.22;2071885;28;20294;-64
2023/03/11 09:37:20;;;;;;;5.00;1.02;;;;;;;8.63;46.64;95863.28;2072244;28;20227;-63
2023/03/11 09:38:21;;;;;;;7.47;1.15;;;;;;;8.70;47.09;95874.22;2071994;28;20256;-63
2023/03/11 09:39:23;;;;;;;6.90;1.15;;;;;;;8.61;45.53;95852.94;2072410;28;20752;-63
2023/03/11 09:40:26;;;;;;;5.07;1.88;;;;;;;8.19;46.22;95874.91;2072414;28;20193;-63
2023/03/11 09:41:52;;;;;;;5.78;1.40;;;;;;;7.81;46.16;95872.34;2071589;28;20667;-63
2023/03/11 09:43:40;;;;;;;4.40;1.10;;;;;;;6.83;48.66;95873.97;2071499;28;20701;-63
2023/03/11 09:44:48;;;;;;;3.25;1.15;;;;;;;6.31;49.28;95865.72;2071421;28;20231;-63
2023/03/11 09:46:16;;;;;;;6.72;1.30;;;;;;;5.72;50.34;95880.94;2071217;28;20266;-63
2023/03/11 09:47:52;;;;;;;7.97;1.30;;;;;;;5.20;51.48;95888.84;2071453;28;20709;-63
2023/03/11 09:49:08;;;;;;;5.43;1.35;;;;;;;4.97;52.29;95885.31;2071371;28;20728;-62
2023/03/11 09:50:21;;;;;;;6.80;1.35;;;;;;;4.99;54.22;95886.13;2071520;28;20204;-63
2023/03/11 09:51:29;;;;;;;11.68;1.40;;;;;;;4.58;53.18;95883.19;2070007;28;20317;-63
2023/03/11 09:52:43;;;;;;;4.90;1.20;;;;;;;4.34;54.59;95877.94;2070364;28;20198;-63
2023/03/11 09:53:47;;;;;;;4.88;1.38;;;;;;;4.41;53.60;95883.75;2071567;28;20249;-62
2023/03/11 09:54:52;;;;;;;4.45;1.10;;;;;;;4.19;55.28;95876.69;2072063;28;20198;-63
2023/03/11 09:55:57;;;;;;;3.55;1.00;;;;;;;4.13;55.33;95879.47;2079776;28;20201;-62
2023/03/11 09:57:01;;;;;;;5.07;1.20;;;;;;;5.22;54.65;95866.38;2079430;28;20201;-62
2023/03/11 09:58:11;;;;;;;6.30;1.10;;;;;;;5.86;50.92;95883.84;2071471;28;20225;-63
2023/03/11 09:59:20;;;;;;;5.82;1.40;;;;;;;5.79;50.94;95878.94;2072177;28;20194;-62
2023/03/11 10:00:23;;;;;;;4.97;1.10;;;;;;;6.03;49.35;95883.25;2072173;28;20825;-62
2023/03/11 10:01:32;;;;;;;7.78;1.60;;;;;;;5.30;49.04;95879.03;2072173;28;20189;-62
2023/03/11 10:02:35;;;;;;;3.53;1.15;;;;;;;5.28;49.84;95871.31;2070885;28;20201;-62
2023/03/11 10:03:37;;;;;;;5.00;0.90;;;;;;;4.83;49.48;95877.22;2072184;28;20622;-62
2023/03/11 10:04:45;;;;;;;2.47;1.08;;;;;;;4.35;50.22;95882.19;2071261;28;20288;-62
2023/03/11 10:05:48;;;;;;;7.47;1.48;;;;;;;5.77;48.71;95867.81;2071891;28;20201;-62
2023/03/11 10:06:50;;;;;;;5.07;1.10;;;;;;;5.72;48.50;95871.41;2079673;28;20338;-62
2023/03/11 10:08:17;;;;;;;3.80;1.20;;;;;;;5.36;48.15;95871.88;2071670;28;20209;-62
2023/03/11 10:09:46;;;;;;;6.72;1.13;;;;;;;5.58;48.56;95878.84;2070538;28;20205;-62
2023/03/11 10:11:00;;;;;;;8.38;1.55;;;;;;;4.90;49.22;95874.34;2071174;28;20221;-62
2023/03/11 10:12:19;;;;;;;2.90;1.00;;;;;;;6.07;48.87;95878.78;2072216;28;20203;-62
2023/03/11 10:13:31;;;;;;;7.32;1.33;;;;;;;5.92;47.74;95872.41;2071402;28;20246;-62
2023/03/11 10:14:51;;;;;;;4.35;1.13;;;;;;;6.41;47.73;95885.19;2078569;28;20209;-62
2023/03/11 10:16:11;;;;;;;4.68;1.27;;;;;;;6.19;47.82;95880.88;2077289;28;20200;-62
2023/03/11 10:17:18;;;;;;;5.40;1.17;;;;;;;5.89;47.92;95880.28;2072199;28;20617;-62
2023/03/11 10:18:22;;;;;;;7.50;1.65;;;;;;;5.60;49.50;95887.44;2071346;28;20230;-62
2023/03/11 10:19:53;;;;;;;4.85;1.35;;;;;;;5.22;51.13;95880.13;2071350;28;20202;-62
2023/03/11 10:21:25;;;;;;;8.18;1.35;;;;;;;5.16;52.12;95889.88;2070393;28;20242;-62
2023/03/11 10:22:41;;;;;;;7.53;1.52;;;;;;;5.04;52.99;95883.38;2069560;28;20286;-62
2023/03/11 10:23:48;;;;;;;5.85;1.15;;;;;;;4.51;52.02;95887.72;2071246;28;20217;-62
2023/03/11 10:25:13;;;;;;;4.55;1.20;;;;;;;5.89;51.71;95885.47;2071692;28;20201;-62
2023/03/11 10:26:21;;;;;;;2.20;0.90;;;;;;;6.09;48.60;95879.53;2071212;28;20568;-62
2023/03/11 10:27:30;;;;;;;3.13;1.23;;;;;;;6.91;48.31;95878.84;2071743;28;20202;-62
2023/03/11 10:28:36;;;;;;;4.25;0.98;;;;;;;7.01;46.98;95885.34;2070544;28;20245;-62
2023/03/11 10:29:48;;;;;;;6.13;1.10;;;;;;;7.51;47.16;95880.59;2071548;28;20221;-63
2023/03/11 10:31:19;;;;;;;5.10;1.13;;;;;;;8.06;46.58;95874.63;2071539;28;20198;-63
2023/03/11 10:32:28;;;;;;;5.53;0.90;;;;;;;10.09;43.51;95877.44;2071822;28;20223;-62
2023/03/11 10:33:38;;;;;;;2.20;0.77;;;;;;;10.29;39.66;95877.19;2071463;28;20696;-63
2023/03/11 10:34:51;;;;;;;3.97;1.23;;;;;;;10.68;39.63;95882.91;2071836;28;20207;-63
2023/03/11 10:35:56;;;;;;;4.55;1.15;;;;;;;10.93;38.98;95869.25;2071387;28;20229;-63
2023/03/11 10:37:05;;;;;;;5.28;1.50;;;;;;;10.01;38.06;95870.06;2071852;28;20197;-63
2023/03/11 10:38:18;;;;;;;2.47;0.80;;;;;;;9.37;39.20;95875.19;2070695;28;20225;-63
2023/03/11 10:39:21;;;;;;;3.30;0.98;;;;;;;9.17;39.81;95872.75;2070853;28;20207;-63
2023/03/11 10:40:25;;;;;;;3.00;1.40;;;;;;;7.80;42.04;95870.66;2070507;28;20232;-63
2023/03/11 10:41:40;;;;;;;1.65;0.80;;;;;;;7.76;42.44;95856.94;2071949;28;20193;-62
2023/03/11 10:42:44;;;;;;;2.50;1.00;;;;;;;8.59;41.21;95866.97;2071176;28;20201;-63
2023/03/11 10:44:08;;;;;;;3.33;1.20;;;;;;;9.77;41.06;95873.06;2071220;28;20202;-65
2023/03/11 10:45:13;;;;;;;4.30;1.20;;;;;;;10.00;40.22;95857.09;2070854;28;20212;-63
2023/03/11 10:46:19;;;;;;;8.32;1.25;;;;;;;10.42;40.46;95871.31;2070562;28;20199;-63
2023/03/11 10:47:24;;;;;;;4.75;1.10;;;;;;;11.28;40.48;95870.72;2069690;28;20728;-63
2023/03/11 10:48:25;;;;;;;5.13;1.10;;;;;;;11.69;39.37;95867.34;2071448;28;20244;-63
2023/03/11 10:49:27;;;;;;;4.00;1.25;;;;;;;12.98;37.38;95862.69;2071965;28;20205;-64
2023/03/11 10:50:33;;;;;;;2.78;1.13;;;;;;;12.50;36.93;95875.47;2071337;28;20212;-64
2023/03/11 10:51:37;;;;;;;3.05;1.20;;;;;;;13.11;36.94;95865.31;2071566;28;20210;-64
2023/03/11 10:53:05;;;;;;;7.85;1.00;;;;;;;13.00;37.21;95860.81;2070152;28;20219;-64
2023/03/11 10:54:06;;;;;;;2.47;0.93;;;;;;;13.24;35.66;95857.47;2071244;28;20244;-64
2023/03/11 10:55:18;;;;;;;5.22;1.20;;;;;;;12.97;35.43;95875.91;2072027;28;20216;-64
2023/03/11 10:56:31;;;;;;;3.22;0.98;;;;;;;12.82;34.52;95877.75;2071911;28;20653;-64
2023/03/11 10:57:35;;;;;;;3.53;1.00;;;;;;;13.34;33.72;95857.69;2071166;28;20268;-64
2023/03/11 10:58:47;;;;;;;3.72;0.90;;;;;;;13.09;34.75;95876.84;2071243;28;20209;-64
2023/03/11 10:59:57;;;;;;;4.20;1.20;;;;;;;11.70;35.72;95862.97;2072170;28;20633;-64
2023/03/11 11:01:20;;;;;;;5.53;1.20;;;;;;;13.04;36.72;95882.44;2071020;28;20267;-64
2023/03/11 11:02:25;;;;;;;2.28;0.90;;;;;;;13.26;37.36;95875.75;2071410;28;20197;-64
2023/03/11 11:03:27;;;;;;;3.88;1.00;;;;;;;14.10;36.36;95871.69;2070725;28;20236;-64
2023/03/11 11:04:39;;;;;;;7.50;1.08;;;;;;;13.40;36.47;95875.66;2071274;28;20225;-65
2023/03/11 11:05:41;;;;;;;5.97;0.90;;;;;;;14.14;34.84;95873.13;2070876;28;20202;-65
2023/03/11 11:06:42;;;;;;;2.65;0.90;;;;;;;14.08;35.97;95860.47;2071330;28;20197;-64
2023/03/11 11:07:45;;;;;;;9.88;1.52;;;;;;;14.56;34.60;95880.66;2071564;28;20200;-65
2023/03/11 11:08:47;;;;;;;3.60;1.35;;;;;;;15.13;35.33;95878.28;2072666;28;20667;-65
2023/03/11 11:10:12;;;;;;;4.53;1.00;;;;;;;15.21;32.64;95877.72;2071721;28;20267;-65
2023/03/11 11:11:23;;;;;;;6.13;1.45;;;;;;;15.30;34.29;95871.75;2071016;28;20236;-66
2023/03/11 11:12:25;;;;;;;6.28;1.13;;;;;;;14.84;34.38;95882.16;2071062;28;20205;-66
2023/03/11 11:13:33;;;;;;;4.32;1.00;;;;;;;13.95;33.85;95880.66;2064540;28;20675;-66
2023/03/11 11:14:50;;;;;;;3.70;1.15;;;;;;;13.95;33.75;95888.53;2072582;28;20197;-66
2023/03/11 11:15:55;;;;;;;2.55;0.93;;;;;;;13.41;34.27;95879.09;2071059;28;20223;-66
2023/03/11 11:16:57;;;;;;;2.88;1.02;;;;;;;14.06;33.71;95877.28;2070423;28;20250;-65
2023/03/11 11:18:15;;;;;;;4.03;1.10;;;;;;;12.01;34.31;95879.41;2070378;28;20321;-65
2023/03/11 11:19:18;;;;;;;7.93;1.00;;;;;;;11.51;35.61;95856.25;2071703;28;20197;-65
2023/03/11 11:20:24;;;;;;;3.15;1.02;;;;;;;10.92;36.99;95871.97;2070756;28;20221;-65
2023/03/11 11:21:32;;;;;;;3.60;1.35;;;;;;;9.31;39.23;95878.94;2071905;28;20209;-64
2023/03/11 11:22:34;;;;;;;3.45;1.10;;;;;;;10.70;41.21;95872.34;2071307;28;20232;-64
2023/03/11 11:23:38;;;;;;;8.80;1.35;;;;;;;11.97;39.80;95883.16;2069757;28;20197;-65
2023/03/11 11:24:44;;;;;;;9.35;1.20;;;;;;;12.10;37.85;95857.91;2062240;28;20202;-65
2023/03/11 11:25:57;;;;;;;3.70;1.27;;;;;;;12.25;38.12;95874.41;2071485;28;20201;-65
2023/03/11 11:27:18;;;;;;;3.30;1.15;;;;;;;12.16;36.70;95875.81;2077319;28;20228;-65
2023/03/11 11:28:19;;;;;;;3.67;1.10;;;;;;;10.24;38.53;95886.22;2070914;28;20252;-65
2023/03/11 11:29:21;;;;;;;4.63;1.10;;;;;;;9.78;41.03;95874.75;2071691;28;20220;-65
2023/03/11 11:30:23;;;;;;;5.05;1.20;;;;;;;10.30;39.96;95880.66;2071756;28;20197;-65
2023/03/11 11:31:25;;;;;;;2.53;1.15;;;;;;;10.06;41.71;95875.03;2071743;28;20220;-65
2023/03/11 11:32:28;;;;;;;10.38;2.08;;;;;;;11.08;40.39;95882.34;2070542;28;20636;-65
2023/03/11 11:33:38;;;;;;;2.90;0.95;;;;;;;11.84;39.24;95886.50;2070024;28;20952;-64
2023/03/11 11:34:40;;;;;;;4.70;1.20;;;;;;;11.47;39.27;95878.28;2070982;28;20248;-65
2023/03/11 11:36:14;;;;;;;5.97;1.33;;;;;;;12.26;39.52;95886.56;2071038;28;20264;-65
2023/03/11 11:37:16;;;;;;;10.73;1.02;;;;;;;12.16;37.49;95854.06;2060206;28;20810;-65
2023/03/11 11:38:21;;;;;;;3.72;1.48;;;;;;;12.83;38.08;95872.41;2066133;28;20241;-65
2023/03/11 11:39:25;;;;;;;4.97;1.30;;;;;;;11.91;38.30;95866.88;2071769;28;20205;-65
2023/03/11 11:40:30;;;;;;;6.15;1.50;;;;;;;11.16;39.44;95874.91;2072155;28;20209;-65
2023/03/11 11:41:35;;;;;;;6.45;1.20;;;;;;;11.04;39.97;95870.41;2078683;28;20205;-65
2023/03/11 11:42:43;;;;;;;7.60;1.23;;;;;;;10.10;42.63;95863.50;2078257;28;20201;-65
2023/03/11 11:44:01;;;;;;;4.50;0.90;;;;;;;10.19;40.97;95860.34;2070881;28;20198;-65
2023/03/11 11:45:14;;;;;;;8.73;1.30;;;;;;;9.92;42.05;95881.00;2070530;28;20194;-65
2023/03/11 11:46:36;;;;;;;5.13;1.40;;;;;;;9.37;43.11;95838.72;2071877;28;20205;-65
2023/03/11 11:47:47;;;;;;;2.78;1.15;;;;;;;9.93;44.48;95878.28;2070731;28;20608;-65
2023/03/11 11:49:07;;;;;;;2.95;0.90;;;;;;;10.02;43.91;95868.28;2071870;28;20700;-65
2023/03/11 11:50:32;;;;;;;5.95;1.30;;;;;;;9.05;42.90;95877.66;2071806;28;20214;-64
2023/03/11 11:51:39;;;;;;;3.20;1.13;;;;;;;8.39;42.69;95860.91;2070895;28;20209;-64
2023/03/11 11:52:45;;;;;;;7.82;1.10;;;;;;;8.15;45.11;95862.94;2070978;28;20196;-65
2023/03/11 11:54:16;;;;;;;2.70;1.10;;;;;;;8.30;44.42;95875.25;2071942;28;20655;-65
2023/03/11 11:55:32;;;;;;;10.35;1.58;;;;;;;8.25;45.52;95874.63;2071684;28;20198;-64
2023/03/11 11:56:34;;;;;;;5.38;1.30;;;;;;;7.85;43.94;95860.88;2071509;28;20591;-64
2023/03/11 11:57:35;;;;;;;6.72;1.02;;;;;;;7.38;44.14;95851.72;2069844;28;20202;-64
2023/03/11 11:58:39;;;;;;;5.15;1.08;;;;;;;7.54;45.86;95862.25;2073032;28;20201;-64
2023/03/11 11:59:42;;;;;;;3.75;1.10;;;;;;;7.80;46.98;95873.25;2072756;28;20267;-64
2023/03/11 12:00:56;;;;;;;2.78;0.95;;;;;;;7.75;46.08;95875.22;2072342;28;20200;-64
2023/03/11 12:02:12;;;;;;;6.93;1.02;;;;;;;7.41;45.98;95861.97;2072744;28;20212;-64
2023/03/11 12:03:52;;;;;;;5.75;1.05;;;;;;;7.25;47.21;95864.41;2072024;28;20217;-64
2023/03/11 12:05:12;;;;;;;6.38;1.90;;;;;;;7.38;46.61;95856.94;2072498;28;20234;-64
2023/03/11 12:06:53;;;;;;;2.47;0.90;;;;;;;6.82;44.72;95855.88;2073143;28;20198;-65
2023/03/11 12:08:24;;;;;;;3.88;0.93;;;;;;;6.81;45.13;95860.22;2072494;28;20272;-64
2023/03/11 12:09:36;;;;;;;4.65;0.90;;;;;;;6.47;46.06;95861.59;2072774;28;20201;-64
2023/03/11 12:10:55;;;;;;;5.75;1.35;;;;;;;6.79;44.82;95854.28;2072461;28;20821;-64
2023/03/11 12:12:16;;;;;;;2.63;0.90;;;;;;;8.38;42.23;95854.06;2072094;28;20356;-64
2023/03/11 12:13:27;;;;;;;6.13;1.25;;;;;;;8.59;40.84;95859.16;2071401;28;20291;-64
2023/03/11 12:14:29;;;;;;;3.63;1.10;;;;;;;9.32;40.42;95846.75;2072667;28;20198;-64
2023/03/11 12:15:40;;;;;;;3.47;1.00;;;;;;;9.67;38.69;95850.19;2072177;28;20233;-63
2023/03/11 12:16:56;;;;;;;3.50;0.93;;;;;;;10.07;38.78;95841.03;2072367;28;20777;-64
2023/03/11 12:18:05;;;;;;;4.50;1.10;;;;;;;10.48;39.49;95838.81;2066598;28;20227;-64
2023/03/11 12:19:09;;;;;;;6.15;1.30;;;;;;;9.92;38.32;95839.25;2071786;28;20201;-64
2023/03/11 12:20:19;;;;;;;2.60;1.10;;;;;;;10.02;38.37;95835.22;2072614;28;20208;-64
2023/03/11 12:21:41;;;;;;;2.85;1.25;;;;;;;10.24;39.00;95836.63;2066142;28;20269;-64
2023/03/11 12:23:27;;;;;;;1.85;0.82;;;;;;;10.76;38.08;95832.84;2071115;28;20217;-64
2023/03/11 12:25:08;;;;;;;7.57;1.35;;;;;;;10.16;38.02;95831.84;2071753;28;20240;-64
2023/03/11 12:26:21;;;;;;;2.55;1.20;;;;;;;9.51;38.73;95839.72;2072672;28;20205;-64
2023/03/11 12:27:28;;;;;;;5.45;1.10;;;;;;;9.66;38.42;95831.06;2072023;28;20208;-64
2023/03/11 12:28:49;;;;;;;3.75;1.27;;;;;;;10.69;38.80;95829.75;2071639;28;20233;-64